Time;durP1;ratioP1;P1;durP2;ratioP2;P2;SDS_P1;SDS_P2;PMS_P1;PMS_P2;Temp;Humidity;BMP_temperature;BMP_pressure;BME280_temperature;BME280_humidity;BME280_pressure;Samples;Min_cycle;Max_cycle;Signal;HPM_P1;HPM_P2
2021/11/20 00:02:10;;;;;;;15.10;10.73;;;9.00;99.90;;;;;;5067381;28;20298;-73
2021/11/20 00:04:57;;;;;;;18.30;10.90;;;9.00;99.90;;;;;;5068000;28;20200;-73
2021/11/20 00:07:43;;;;;;;18.50;12.70;;;9.00;99.90;;;;;;5068295;28;20558;-73
2021/11/20 00:10:31;;;;;;;18.60;12.00;;;9.00;99.90;;;;;;5061884;28;20393;-73
2021/11/20 00:13:18;;;;;;;17.70;10.27;;;9.00;99.90;;;;;;5064587;28;20459;-73
2021/11/20 00:16:06;;;;;;;19.77;12.93;;;8.80;99.90;;;;;;5065762;28;20470;-73
2021/11/20 00:18:53;;;;;;;21.40;11.93;;;8.80;99.90;;;;;;5064723;28;20931;-73
2021/11/20 00:21:42;;;;;;;22.40;11.77;;;8.80;99.90;;;;;;5067734;28;20419;-73
2021/11/20 00:24:32;;;;;;;14.57;10.57;;;8.70;99.90;;;;;;5071009;28;20424;-73
2021/11/20 00:27:21;;;;;;;26.63;14.73;;;8.60;99.90;;;;;;5072252;28;20415;-73
2021/11/20 00:30:15;;;;;;;25.47;15.13;;;8.70;99.90;;;;;;5069685;28;20489;-73
2021/11/20 00:33:03;;;;;;;23.30;13.10;;;8.70;99.90;;;;;;5065034;28;20462;-74
2021/11/20 00:35:53;;;;;;;26.47;14.70;;;8.60;99.90;;;;;;5066961;28;20491;-73
2021/11/20 00:38:39;;;;;;;22.57;12.33;;;8.70;99.90;;;;;;5071555;28;21025;-73
2021/11/20 00:41:28;;;;;;;21.00;13.00;;;8.70;99.90;;;;;;5067207;28;22417;-73
2021/11/20 00:44:15;;;;;;;26.20;15.50;;;8.80;99.90;;;;;;5065548;28;20433;-73
2021/11/20 00:47:02;;;;;;;21.97;14.00;;;8.70;99.90;;;;;;5070476;28;20442;-73
2021/11/20 00:49:50;;;;;;;20.33;12.90;;;8.70;99.90;;;;;;5068863;28;20422;-73
2021/11/20 00:52:36;;;;;;;22.60;14.77;;;8.70;99.90;;;;;;5064053;28;20999;-73
2021/11/20 00:55:24;;;;;;;21.15;14.27;;;8.80;99.90;;;;;;5061352;28;20797;-73
2021/11/20 00:58:11;;;;;;;21.73;14.57;;;8.80;99.90;;;;;;5066439;28;20208;-73
2021/11/20 01:01:00;;;;;;;18.45;12.90;;;8.80;99.90;;;;;;5069818;28;20446;-73
2021/11/20 01:03:46;;;;;;;18.33;14.20;;;8.70;99.90;;;;;;5064529;28;20314;-73
2021/11/20 01:06:32;;;;;;;20.67;13.70;;;8.80;99.90;;;;;;5070906;28;20446;-73
2021/11/20 01:09:22;;;;;;;23.83;14.50;;;8.90;99.90;;;;;;5066704;28;20807;-73
2021/11/20 01:12:11;;;;;;;23.15;14.98;;;8.90;99.90;;;;;;5066999;28;20433;-73
2021/11/20 01:14:59;;;;;;;22.38;13.43;;;8.80;99.90;;;;;;5069318;28;20286;-73
2021/11/20 01:17:45;;;;;;;24.83;15.07;;;8.80;99.90;;;;;;5059862;28;20200;-73
2021/11/20 01:20:31;;;;;;;19.20;14.30;;;8.80;99.90;;;;;;5070954;28;20786;-72
2021/11/20 01:23:18;;;;;;;25.80;14.27;;;8.80;99.90;;;;;;5069341;28;20462;-73
2021/11/20 01:26:05;;;;;;;19.63;13.73;;;8.70;99.90;;;;;;5069308;28;20428;-73
2021/11/20 01:28:53;;;;;;;27.50;14.40;;;8.80;99.90;;;;;;5070365;28;20494;-73
2021/11/20 01:31:42;;;;;;;20.40;14.03;;;8.80;99.90;;;;;;5064526;28;20489;-73
2021/11/20 01:34:28;;;;;;;31.53;15.20;;;8.80;99.90;;;;;;5067803;28;20439;-74
2021/11/20 01:37:16;;;;;;;21.20;13.33;;;8.70;99.90;;;;;;5069560;28;20457;-73
2021/11/20 01:40:01;;;;;;;24.20;14.30;;;8.80;99.90;;;;;;5054504;28;20439;-73
2021/11/20 01:42:47;;;;;;;25.73;15.03;;;8.80;99.90;;;;;;5068497;28;20540;-73
2021/11/20 01:45:36;;;;;;;21.90;14.70;;;8.80;99.90;;;;;;5064233;28;20417;-73
2021/11/20 01:48:43;;;;;;;27.20;15.33;;;8.80;99.90;;;;;;5067118;28;20492;-73
2021/11/20 01:51:34;;;;;;;26.10;14.53;;;8.80;99.90;;;;;;5067789;28;20957;-73
2021/11/20 01:54:29;;;;;;;21.90;13.87;;;8.90;99.90;;;;;;5067115;28;20453;-73
2021/11/20 01:57:41;;;;;;;21.70;14.20;;;8.90;99.90;;;;;;5065592;28;20470;-73
2021/11/20 02:00:32;;;;;;;18.80;13.27;;;8.80;99.90;;;;;;5064670;28;20444;-73
2021/11/20 02:03:25;;;;;;;22.30;14.80;;;8.80;99.90;;;;;;5063348;28;21067;-73
2021/11/20 02:06:18;;;;;;;23.00;13.97;;;8.90;99.90;;;;;;5066803;28;20497;-73
2021/11/20 02:09:09;;;;;;;23.17;15.67;;;8.90;99.90;;;;;;5067060;28;20428;-73
2021/11/20 02:11:58;;;;;;;23.50;14.43;;;8.90;99.90;;;;;;5067998;28;20446;-73
2021/11/20 02:14:44;;;;;;;24.13;15.57;;;8.80;99.90;;;;;;5066417;28;20828;-73
2021/11/20 02:17:40;;;;;;;17.63;13.17;;;8.70;99.90;;;;;;5064398;28;20482;-73
2021/11/20 02:20:29;;;;;;;26.80;13.70;;;8.70;99.90;;;;;;5069522;28;20438;-73
2021/11/20 02:23:16;;;;;;;18.00;13.43;;;8.80;99.90;;;;;;5068555;28;20454;-73
2021/11/20 02:26:02;;;;;;;21.33;14.30;;;8.80;99.90;;;;;;5059534;28;20462;-73
2021/11/20 02:28:51;;;;;;;23.73;13.67;;;8.80;99.90;;;;;;5064185;28;20879;-73
2021/11/20 02:31:40;;;;;;;21.87;13.83;;;8.70;99.90;;;;;;5064299;28;20445;-73
2021/11/20 02:34:32;;;;;;;21.70;12.63;;;8.70;99.90;;;;;;5068005;28;20439;-73
2021/11/20 02:37:18;;;;;;;21.80;14.97;;;8.80;99.90;;;;;;5065850;28;20485;-73
2021/11/20 02:40:06;;;;;;;20.70;14.27;;;8.80;99.90;;;;;;5060219;28;20447;-73
2021/11/20 02:42:52;;;;;;;26.27;16.33;;;8.70;99.90;;;;;;5068973;28;20521;-73
2021/11/20 02:45:40;;;;;;;23.77;15.67;;;8.70;99.90;;;;;;5064655;28;20442;-73
2021/11/20 02:48:27;;;;;;;20.37;13.80;;;8.70;99.90;;;;;;5065479;28;20448;-72
2021/11/20 02:51:16;;;;;;;27.20;15.77;;;8.70;99.90;;;;;;5068740;28;20439;-73
2021/11/20 02:54:04;;;;;;;22.50;15.10;;;8.70;99.90;;;;;;5073072;28;21095;-73
2021/11/20 02:57:01;;;;;;;34.60;17.93;;;8.60;99.90;;;;;;5069891;28;20478;-73
2021/11/20 02:59:47;;;;;;;27.57;15.60;;;8.60;99.90;;;;;;5064380;28;20585;-73
2021/11/20 03:02:32;;;;;;;25.23;16.10;;;8.70;99.90;;;;;;5069388;28;20486;-73
2021/11/20 03:05:21;;;;;;;23.90;16.13;;;8.70;99.90;;;;;;5072143;28;20461;-73
2021/11/20 03:08:07;;;;;;;20.00;14.83;;;8.70;99.90;;;;;;5070224;28;20947;-73
2021/11/20 03:10:53;;;;;;;20.50;14.30;;;8.60;99.90;;;;;;5071391;28;20501;-73
2021/11/20 03:13:38;;;;;;;21.77;14.50;;;8.50;99.90;;;;;;5069322;28;20485;-73
2021/11/20 03:16:24;;;;;;;30.53;16.00;;;8.50;99.90;;;;;;5071669;28;21098;-73
2021/11/20 03:19:10;;;;;;;24.87;15.30;;;8.50;99.90;;;;;;5068577;28;20579;-73
2021/11/20 03:22:00;;;;;;;25.23;16.60;;;8.50;99.90;;;;;;5070291;28;20409;-73
2021/11/20 03:24:46;;;;;;;24.83;14.20;;;8.50;99.90;;;;;;5073153;28;20980;-73
2021/11/20 03:27:33;;;;;;;24.37;16.20;;;8.60;99.90;;;;;;5069248;28;20999;-73
2021/11/20 03:30:20;;;;;;;23.57;15.83;;;8.60;99.90;;;;;;5066628;28;20417;-73
2021/11/20 03:33:06;;;;;;;25.60;15.53;;;8.50;99.90;;;;;;5070285;28;20954;-73
2021/11/20 03:35:53;;;;;;;20.57;14.40;;;8.50;99.90;;;;;;5070666;28;20425;-73
2021/11/20 03:38:40;;;;;;;22.43;14.67;;;8.50;99.90;;;;;;5070540;28;20438;-73
2021/11/20 03:41:26;;;;;;;22.23;14.47;;;8.60;99.90;;;;;;5072874;28;20438;-73
2021/11/20 03:44:12;;;;;;;17.07;13.20;;;8.70;99.90;;;;;;5071218;28;20559;-73
2021/11/20 03:46:58;;;;;;;23.10;15.70;;;8.50;99.90;;;;;;5072418;28;20439;-73
2021/11/20 03:49:44;;;;;;;26.80;15.80;;;8.50;99.90;;;;;;5069760;28;20507;-73
2021/11/20 03:52:30;;;;;;;23.50;15.87;;;8.50;99.90;;;;;;5069207;28;21858;-73
2021/11/20 03:55:21;;;;;;;22.37;15.30;;;8.50;99.90;;;;;;5072383;28;20442;-73
2021/11/20 03:58:07;;;;;;;22.57;15.23;;;8.40;99.90;;;;;;5065463;28;20477;-73
2021/11/20 04:00:56;;;;;;;31.17;15.50;;;8.50;99.90;;;;;;5071186;28;20429;-73
2021/11/20 04:03:44;;;;;;;23.73;14.73;;;8.60;99.90;;;;;;5070200;28;21001;-73
2021/11/20 04:06:30;;;;;;;21.50;14.93;;;8.60;99.90;;;;;;5072415;28;20504;-73
2021/11/20 04:09:15;;;;;;;23.80;13.87;;;8.60;99.90;;;;;;5068728;28;20458;-73
2021/11/20 04:12:03;;;;;;;20.63;14.40;;;8.70;99.90;;;;;;5070892;28;20437;-73
2021/11/20 04:14:48;;;;;;;28.17;14.67;;;8.70;99.90;;;;;;5071232;28;20516;-73
2021/11/20 04:17:34;;;;;;;22.60;15.50;;;8.70;99.90;;;;;;5067441;28;20898;-73
2021/11/20 04:20:23;;;;;;;24.37;15.07;;;8.60;99.90;;;;;;5071056;28;20513;-73
2021/11/20 04:23:08;;;;;;;21.23;13.70;;;8.60;99.90;;;;;;5066595;28;20466;-73
2021/11/20 04:25:54;;;;;;;23.50;14.80;;;8.60;99.90;;;;;;5064323;28;20447;-73
2021/11/20 04:28:41;;;;;;;23.67;13.87;;;8.70;99.90;;;;;;5071026;28;20434;-73
2021/11/20 04:31:27;;;;;;;25.60;14.03;;;8.70;99.90;;;;;;5063093;28;20521;-73
2021/11/20 04:34:13;;;;;;;20.13;13.83;;;8.60;99.90;;;;;;5067196;28;20591;-73
2021/11/20 04:36:58;;;;;;;21.17;15.30;;;8.50;99.90;;;;;;5065898;28;20475;-73
2021/11/20 04:39:44;;;;;;;23.87;15.00;;;8.50;99.90;;;;;;5065051;28;20446;-73
2021/11/20 04:42:30;;;;;;;19.83;14.30;;;8.50;99.90;;;;;;5070232;28;20466;-73
2021/11/20 04:45:19;;;;;;;19.50;12.70;;;8.50;99.90;;;;;;5070125;28;20816;-73
2021/11/20 04:48:06;;;;;;;20.37;12.33;;;8.50;99.90;;;;;;5070378;28;20915;-73
2021/11/20 04:50:54;;;;;;;24.47;14.70;;;8.50;99.90;;;;;;5070981;28;20488;-73
2021/11/20 04:53:42;;;;;;;25.30;14.67;;;8.60;99.90;;;;;;5062789;28;20482;-73
2021/11/20 04:56:29;;;;;;;23.50;13.83;;;8.60;99.90;;;;;;5070995;28;21051;-73
2021/11/20 04:59:14;;;;;;;24.53;13.07;;;8.60;99.90;;;;;;5063010;28;20512;-73
2021/11/20 05:02:02;;;;;;;24.60;14.57;;;8.60;99.90;;;;;;5070538;28;20524;-73
2021/11/20 05:04:48;;;;;;;20.57;14.07;;;8.60;99.90;;;;;;5065876;28;20655;-73
2021/11/20 05:07:34;;;;;;;23.53;14.70;;;8.60;99.90;;;;;;5059230;28;20444;-73
2021/11/20 05:10:20;;;;;;;17.00;11.77;;;8.70;99.90;;;;;;5065638;28;20846;-73
2021/11/20 05:13:06;;;;;;;28.93;14.87;;;8.70;99.90;;;;;;5066947;28;20991;-73
2021/11/20 05:15:53;;;;;;;26.45;15.57;;;8.60;99.90;;;;;;5064349;28;20447;-72
2021/11/20 05:18:41;;;;;;;24.97;14.20;;;8.50;99.90;;;;;;5070113;28;20342;-73
2021/11/20 05:21:26;;;;;;;22.87;14.07;;;8.60;99.90;;;;;;5070148;28;20544;-73
2021/11/20 05:24:12;;;;;;;24.57;15.97;;;8.60;99.90;;;;;;5067611;28;20505;-73
2021/11/20 05:27:00;;;;;;;19.83;13.40;;;8.60;99.90;;;;;;5068107;28;20432;-73
2021/11/20 05:29:51;;;;;;;21.47;14.10;;;8.60;99.90;;;;;;5066086;28;20634;-73
2021/11/20 05:32:37;;;;;;;24.50;15.90;;;8.60;99.90;;;;;;5066203;28;20608;-73
2021/11/20 05:35:25;;;;;;;19.20;13.60;;;8.60;99.90;;;;;;5070416;28;20581;-73
2021/11/20 05:38:10;;;;;;;21.67;14.70;;;8.60;99.90;;;;;;5066684;28;20473;-73
2021/11/20 05:40:56;;;;;;;20.90;13.37;;;8.70;99.90;;;;;;5065342;28;21046;-73
2021/11/20 05:43:42;;;;;;;19.87;13.50;;;8.80;99.90;;;;;;5064295;28;20521;-73
2021/11/20 05:46:28;;;;;;;24.03;12.73;;;8.70;99.90;;;;;;5069768;28;20417;-73
2021/11/20 05:49:14;;;;;;;21.57;13.87;;;8.80;99.90;;;;;;5065946;28;20813;-73
2021/11/20 05:52:01;;;;;;;24.90;14.20;;;8.70;99.90;;;;;;5064488;28;20524;-73
2021/11/20 05:54:48;;;;;;;23.87;14.87;;;8.80;99.90;;;;;;5068925;28;20446;-73
2021/11/20 05:57:34;;;;;;;22.60;14.27;;;8.70;99.90;;;;;;5064022;28;20959;-73
2021/11/20 06:00:23;;;;;;;19.97;14.17;;;8.70;99.90;;;;;;5064792;28;20442;-73
2021/11/20 06:03:09;;;;;;;21.97;13.63;;;8.60;99.90;;;;;;5067485;28;20558;-73
2021/11/20 06:05:55;;;;;;;19.00;14.30;;;8.60;99.90;;;;;;5065469;28;20430;-73
2021/11/20 06:08:42;;;;;;;22.73;14.00;;;8.50;99.90;;;;;;5068086;28;20572;-73
2021/11/20 06:11:27;;;;;;;28.80;15.20;;;8.70;99.90;;;;;;5068492;28;20412;-73
2021/11/20 06:14:13;;;;;;;24.03;15.43;;;8.60;99.90;;;;;;5063493;28;20482;-73
2021/11/20 06:16:59;;;;;;;22.77;13.67;;;8.60;99.90;;;;;;5070125;28;20445;-73
2021/11/20 06:19:44;;;;;;;20.00;13.10;;;8.60;99.90;;;;;;5058251;28;20506;-73
2021/11/20 06:22:30;;;;;;;20.37;14.50;;;8.60;99.90;;;;;;5068192;28;20440;-73
2021/11/20 06:25:17;;;;;;;22.47;13.80;;;8.60;99.90;;;;;;5067530;28;21017;-73
2021/11/20 06:28:04;;;;;;;21.67;15.30;;;8.60;99.90;;;;;;5068314;28;20839;-73
2021/11/20 06:30:50;;;;;;;24.33;14.47;;;8.60;99.90;;;;;;5071215;28;20991;-73
2021/11/20 06:33:36;;;;;;;22.10;14.00;;;8.50;99.90;;;;;;5074450;28;20849;-73
2021/11/20 06:36:22;;;;;;;18.60;12.93;;;8.60;99.90;;;;;;5072974;28;20442;-73
2021/11/20 06:39:08;;;;;;;23.53;13.97;;;8.60;99.90;;;;;;5074487;28;21069;-73
2021/11/20 06:41:55;;;;;;;20.50;13.13;;;8.60;99.90;;;;;;5070880;28;20500;-73
2021/11/20 06:44:40;;;;;;;22.30;11.67;;;8.70;99.90;;;;;;5073095;28;20429;-73
2021/11/20 06:47:26;;;;;;;18.53;13.03;;;8.70;99.90;;;;;;5072978;28;20442;-73
2021/11/20 06:50:12;;;;;;;22.15;13.70;;;8.70;99.90;;;;;;5068815;28;20445;-73
2021/11/20 06:52:58;;;;;;;24.00;13.40;;;8.60;99.90;;;;;;5069915;28;20354;-73
2021/11/20 06:55:45;;;;;;;22.67;15.07;;;8.70;99.90;;;;;;5073326;28;20978;-74
2021/11/20 07:01:45;;;;;;;22.88;14.95;;;8.60;99.90;;;;;;5044795;28;20465;-73
2021/11/20 07:04:32;;;;;;;20.20;13.03;;;8.50;99.90;;;;;;5069919;28;20559;-73
2021/11/20 07:07:19;;;;;;;20.75;13.23;;;8.60;99.90;;;;;;5070754;28;20801;-73
2021/11/20 07:10:06;;;;;;;21.70;14.77;;;8.70;99.90;;;;;;5070856;28;20212;-73
2021/11/20 07:12:54;;;;;;;21.37;14.43;;;8.60;99.90;;;;;;5071103;28;20826;-73
2021/11/20 07:15:42;;;;;;;25.53;15.10;;;8.60;99.90;;;;;;5073258;28;20805;-73
2021/11/20 07:18:28;;;;;;;27.50;15.50;;;8.60;99.90;;;;;;5068996;28;20478;-73
2021/11/20 07:21:15;;;;;;;25.10;14.63;;;8.60;99.90;;;;;;5072120;28;20477;-74
2021/11/20 07:24:04;;;;;;;20.67;14.85;;;8.70;99.90;;;;;;5069161;28;20983;-73
2021/11/20 07:26:51;;;;;;;25.13;14.00;;;8.70;99.90;;;;;;5070717;28;20200;-73
2021/11/20 07:29:36;;;;;;;22.70;13.00;;;8.60;99.90;;;;;;5069015;28;20840;-73
2021/11/20 07:32:27;;;;;;;21.13;14.57;;;8.60;99.90;;;;;;5067414;28;20842;-73
2021/11/20 07:35:12;;;;;;;21.97;14.47;;;8.70;99.90;;;;;;5067509;28;20784;-73
2021/11/20 07:37:58;;;;;;;22.43;15.63;;;8.70;99.90;;;;;;5071905;28;20470;-73
2021/11/20 07:40:44;;;;;;;25.70;13.97;;;8.80;99.90;;;;;;5069907;28;20450;-73
2021/11/20 07:43:30;;;;;;;24.20;15.83;;;8.90;99.90;;;;;;5068650;28;20593;-74
2021/11/20 07:46:15;;;;;;;22.57;15.70;;;8.90;99.90;;;;;;5067649;28;20461;-73
2021/11/20 07:49:04;;;;;;;25.10;16.13;;;8.90;99.90;;;;;;5066423;28;20461;-73
2021/11/20 07:51:50;;;;;;;24.23;14.33;;;9.00;99.90;;;;;;5072402;28;20450;-73
2021/11/20 07:54:36;;;;;;;25.83;17.17;;;9.00;99.90;;;;;;5066660;28;20978;-73
2021/11/20 07:57:21;;;;;;;24.27;15.17;;;9.00;99.90;;;;;;5070995;28;20435;-73
2021/11/20 08:00:12;;;;;;;25.77;15.63;;;9.00;99.90;;;;;;5069541;28;20454;-73
2021/11/20 08:02:58;;;;;;;20.33;13.53;;;9.10;99.90;;;;;;5066768;28;20458;-73
2021/11/20 08:05:45;;;;;;;20.67;14.40;;;9.10;99.90;;;;;;5073023;28;20561;-73
2021/11/20 08:08:31;;;;;;;23.80;14.53;;;9.20;99.90;;;;;;5068779;28;20386;-73
2021/11/20 08:11:17;;;;;;;24.70;15.80;;;9.20;99.90;;;;;;5065150;28;20817;-73
2021/11/20 08:14:03;;;;;;;22.10;14.60;;;9.20;99.90;;;;;;5067648;28;20469;-72
2021/11/20 08:16:49;;;;;;;20.97;14.30;;;9.20;99.90;;;;;;5068920;28;21071;-73
2021/11/20 08:19:35;;;;;;;26.37;16.37;;;9.30;99.90;;;;;;5066921;28;20475;-72
2021/11/20 08:22:22;;;;;;;26.00;16.83;;;9.30;99.90;;;;;;5070076;28;21313;-73
2021/11/20 08:25:11;;;;;;;25.03;17.50;;;9.30;99.90;;;;;;5064092;28;20525;-72
2021/11/20 08:27:59;;;;;;;30.77;15.83;;;9.40;99.90;;;;;;5071853;28;20453;-72
2021/11/20 08:30:45;;;;;;;23.95;14.90;;;9.40;99.90;;;;;;5071331;28;20545;-72
2021/11/20 08:33:31;;;;;;;25.27;17.13;;;9.40;99.90;;;;;;5071561;28;20224;-73
2021/11/20 08:36:17;;;;;;;24.17;15.27;;;9.40;99.90;;;;;;5069961;28;20483;-72
2021/11/20 08:39:05;;;;;;;23.50;15.87;;;9.50;99.90;;;;;;5070818;28;20560;-72
2021/11/20 08:41:50;;;;;;;24.13;14.17;;;9.50;99.90;;;;;;5071656;28;20446;-73
2021/11/20 08:44:36;;;;;;;23.23;15.23;;;9.50;99.90;;;;;;5068334;28;20466;-73
2021/11/20 08:47:21;;;;;;;33.45;21.10;;;9.60;99.90;;;;;;5071342;28;21014;-73
2021/11/20 08:50:09;;;;;;;43.20;25.37;;;9.70;99.90;;;;;;5066793;28;20342;-72
2021/11/20 08:52:54;;;;;;;36.97;22.70;;;9.70;99.90;;;;;;5062067;28;20606;-72
2021/11/20 08:55:42;;;;;;;41.77;23.20;;;9.70;99.90;;;;;;5071021;28;20540;-72
2021/11/20 08:58:28;;;;;;;38.33;22.90;;;9.70;99.90;;;;;;5067585;28;20461;-73
2021/11/20 09:01:18;;;;;;;36.23;22.97;;;9.70;99.90;;;;;;5063425;28;20537;-73
2021/11/20 09:04:07;;;;;;;31.40;20.20;;;9.80;99.90;;;;;;5069161;28;20489;-73
2021/11/20 09:06:57;;;;;;;31.07;19.50;;;9.80;99.90;;;;;;5070915;28;20446;-73
2021/11/20 09:09:46;;;;;;;30.90;17.97;;;9.80;99.90;;;;;;5070540;28;20458;-73
2021/11/20 09:12:38;;;;;;;28.83;19.07;;;9.80;99.90;;;;;;5062634;28;20446;-73
2021/11/20 09:15:28;;;;;;;31.53;21.20;;;9.80;99.90;;;;;;5070382;28;20507;-72
2021/11/20 09:18:14;;;;;;;31.37;20.20;;;9.80;99.90;;;;;;5065498;28;21005;-72
2021/11/20 09:21:03;;;;;;;31.83;20.50;;;9.90;99.90;;;;;;5064224;28;20454;-72
2021/11/20 09:23:49;;;;;;;28.47;19.20;;;9.90;99.90;;;;;;5067453;28;20900;-72
2021/11/20 09:26:37;;;;;;;32.37;18.77;;;10.00;99.90;;;;;;5063505;28;20437;-72
2021/11/20 09:29:27;;;;;;;30.10;18.63;;;10.00;99.90;;;;;;5061081;28;20446;-72
2021/11/20 09:32:14;;;;;;;26.53;17.63;;;10.00;99.90;;;;;;5067582;28;20955;-72
2021/11/20 09:34:59;;;;;;;24.97;16.80;;;10.00;99.90;;;;;;5062698;28;20457;-72
2021/11/20 09:37:45;;;;;;;26.20;17.70;;;10.10;99.90;;;;;;5070041;28;20484;-72
2021/11/20 09:40:33;;;;;;;25.63;17.50;;;10.10;99.90;;;;;;5069695;28;20474;-72
2021/11/20 09:43:23;;;;;;;26.73;16.20;;;10.20;99.90;;;;;;5068642;28;20995;-72
2021/11/20 09:46:16;;;;;;;24.63;16.63;;;10.20;99.90;;;;;;5068883;28;20439;-73
2021/11/20 09:49:05;;;;;;;24.70;16.60;;;10.30;99.90;;;;;;5065644;28;20409;-72
2021/11/20 09:51:52;;;;;;;23.57;15.73;;;10.30;99.90;;;;;;5063014;28;20580;-73
2021/11/20 09:54:40;;;;;;;20.87;14.70;;;10.30;99.90;;;;;;5068648;28;20941;-72
2021/11/20 09:57:29;;;;;;;20.10;14.33;;;10.40;99.90;;;;;;5061521;28;20435;-73
2021/11/20 10:00:51;;;;;;;20.67;14.33;;;10.40;99.90;;;;;;5067959;28;20433;-73
2021/11/20 10:03:45;;;;;;;22.17;14.60;;;10.40;99.90;;;;;;5064349;28;20474;-72
2021/11/20 10:06:33;;;;;;;18.83;13.87;;;10.40;99.90;;;;;;5067464;28;21005;-73
2021/11/20 10:09:30;;;;;;;21.77;12.57;;;10.40;99.90;;;;;;5068757;28;20586;-73
2021/11/20 10:12:23;;;;;;;17.30;11.53;;;10.40;99.90;;;;;;5068909;28;20628;-73
2021/11/20 10:15:15;;;;;;;15.90;11.30;;;10.50;99.90;;;;;;5065925;28;20596;-73
2021/11/20 10:18:05;;;;;;;22.50;13.67;;;10.50;99.90;;;;;;5064617;28;20510;-73
2021/11/20 10:20:55;;;;;;;15.93;11.30;;;10.60;99.90;;;;;;5064069;28;20426;-73
2021/11/20 10:23:49;;;;;;;14.67;11.30;;;10.60;99.90;;;;;;5066563;28;20585;-73
2021/11/20 10:27:02;;;;;;;14.93;10.70;;;10.60;99.90;;;;;;5065397;28;20456;-73
2021/11/20 10:30:00;;;;;;;17.67;12.10;;;10.60;99.90;;;;;;5059871;28;20973;-73
2021/11/20 10:32:53;;;;;;;23.23;13.40;;;10.70;99.90;;;;;;5069617;28;20541;-72
2021/11/20 10:35:44;;;;;;;17.50;11.63;;;10.70;99.90;;;;;;5068908;28;21811;-71
2021/11/20 10:38:41;;;;;;;17.83;13.20;;;10.70;99.90;;;;;;5069222;28;20436;-71
2021/11/20 10:41:34;;;;;;;19.67;14.20;;;10.80;99.90;;;;;;5061463;28;20450;-71
2021/11/20 10:44:27;;;;;;;21.70;14.50;;;10.80;99.90;;;;;;5062946;28;20663;-71
2021/11/20 10:47:32;;;;;;;20.83;14.30;;;10.80;99.90;;;;;;5064296;28;20489;-71
2021/11/20 10:50:29;;;;;;;19.73;14.23;;;10.80;99.90;;;;;;5064159;28;20783;-71
2021/11/20 10:53:49;;;;;;;21.73;13.73;;;10.80;99.90;;;;;;5063547;28;20470;-71
2021/11/20 10:56:44;;;;;;;21.80;15.30;;;10.90;99.90;;;;;;5069317;28;20414;-71
2021/11/20 10:59:52;;;;;;;23.60;15.40;;;10.90;99.90;;;;;;5065052;28;20462;-71
2021/11/20 11:03:13;;;;;;;19.90;13.73;;;11.00;99.90;;;;;;5064993;28;20460;-71
2021/11/20 11:06:32;;;;;;;27.03;15.70;;;11.00;99.90;;;;;;5068352;28;20972;-71
2021/11/20 11:09:32;;;;;;;20.83;13.63;;;11.10;99.90;;;;;;5064238;28;20577;-71
2021/11/20 11:12:30;;;;;;;18.60;13.20;;;11.00;99.90;;;;;;5065951;28;20476;-71
2021/11/20 11:15:37;;;;;;;17.30;13.20;;;11.00;99.90;;;;;;5069872;28;20420;-71
2021/11/20 11:18:35;;;;;;;22.33;12.90;;;11.00;99.90;;;;;;5071482;28;20420;-71
2021/11/20 11:21:44;;;;;;;22.90;16.10;;;11.00;99.90;;;;;;5064968;28;20483;-71
2021/11/20 11:25:09;;;;;;;19.93;13.33;;;11.10;99.90;;;;;;5072389;28;20442;-71
2021/11/20 11:28:17;;;;;;;19.37;13.80;;;11.10;99.90;;;;;;5064570;28;20450;-71
2021/11/20 11:31:18;;;;;;;19.63;14.40;;;11.20;99.90;;;;;;5069109;28;20415;-71
2021/11/20 11:34:16;;;;;;;19.43;13.30;;;11.10;99.90;;;;;;5069002;28;21043;-71
2021/11/20 11:37:11;;;;;;;14.57;11.70;;;11.10;99.90;;;;;;5068256;28;20441;-71
2021/11/20 11:40:01;;;;;;;20.50;12.40;;;11.20;99.90;;;;;;5068841;28;20470;-72
2021/11/20 11:42:53;;;;;;;17.53;12.80;;;11.10;99.90;;;;;;5070749;28;20832;-71
2021/11/20 11:46:17;;;;;;;20.33;13.90;;;11.00;99.90;;;;;;5068589;28;20507;-71
2021/11/20 11:49:13;;;;;;;18.53;13.00;;;11.00;99.90;;;;;;5000383;28;20435;-71
2021/11/20 11:52:17;;;;;;;15.30;12.60;;;11.10;99.90;;;;;;5072139;28;20501;-71
2021/11/20 11:55:16;;;;;;;14.67;11.70;;;11.20;99.90;;;;;;5067329;28;20442;-71
2021/11/20 11:58:14;;;;;;;14.70;11.63;;;11.30;99.90;;;;;;5067471;28;20446;-71
2021/11/20 12:01:05;;;;;;;19.63;13.60;;;11.30;99.90;;;;;;5069445;28;20485;-71
2021/11/20 12:04:04;;;;;;;14.90;11.60;;;11.30;99.90;;;;;;5069024;28;21065;-71
2021/11/20 12:07:26;;;;;;;16.57;12.37;;;11.30;99.90;;;;;;5070804;28;20931;-71
2021/11/20 12:10:29;;;;;;;21.03;12.10;;;11.30;99.90;;;;;;5053915;28;20458;-71
2021/11/20 12:13:28;;;;;;;19.63;12.27;;;11.30;99.90;;;;;;5065512;28;20987;-71
2021/11/20 12:16:43;;;;;;;22.47;11.93;;;11.30;99.90;;;;;;5061986;28;20430;-72
2021/11/20 12:19:40;;;;;;;40.47;15.60;;;11.30;99.90;;;;;;5062208;28;21066;-72
2021/11/20 12:22:33;;;;;;;18.07;13.20;;;11.40;99.90;;;;;;5067449;28;20437;-72
2021/11/20 12:25:29;;;;;;;15.60;12.50;;;11.40;99.90;;;;;;5060706;28;20470;-71
2021/11/20 12:28:29;;;;;;;17.83;13.20;;;11.30;99.90;;;;;;5065297;28;20443;-74
2021/11/20 12:31:42;;;;;;;16.93;13.80;;;11.30;99.90;;;;;;5067384;28;20545;-73
2021/11/20 12:34:44;;;;;;;15.50;12.20;;;11.30;99.90;;;;;;5067968;28;20801;-73
2021/11/20 12:37:42;;;;;;;16.50;12.50;;;11.20;99.90;;;;;;5060662;28;20443;-73
2021/11/20 12:41:00;;;;;;;16.97;11.60;;;11.00;99.90;;;;;;5059717;28;20555;-73
2021/11/20 12:44:23;;;;;;;19.60;12.83;;;10.90;99.90;;;;;;5063427;28;20983;-73
2021/11/20 12:47:45;;;;;;;15.93;11.77;;;10.90;99.90;;;;;;5069842;28;20430;-73
2021/11/20 12:50:36;;;;;;;17.60;11.70;;;10.80;99.90;;;;;;5069522;28;20413;-73
2021/11/20 12:53:27;;;;;;;15.47;11.23;;;10.80;99.90;;;;;;5058725;28;20471;-72
2021/11/20 12:56:42;;;;;;;17.10;12.33;;;10.80;99.90;;;;;;5068877;28;20451;-73
2021/11/20 12:59:29;;;;;;;16.17;11.67;;;10.90;99.90;;;;;;5060947;28;20505;-73
2021/11/20 13:02:39;;;;;;;15.97;11.30;;;10.90;99.90;;;;;;5065396;28;20453;-73
2021/11/20 13:05:29;;;;;;;21.43;13.80;;;11.00;99.90;;;;;;5064493;28;20435;-73
2021/11/20 13:08:27;;;;;;;19.20;13.80;;;11.00;99.90;;;;;;5065560;28;20423;-73
2021/11/20 13:11:21;;;;;;;19.43;13.20;;;10.90;99.90;;;;;;5069336;28;20489;-73
2021/11/20 13:14:14;;;;;;;19.77;13.83;;;10.90;99.90;;;;;;5065718;28;20543;-73
2021/11/20 13:17:09;;;;;;;17.90;12.50;;;10.90;99.90;;;;;;5065165;28;20525;-73
2021/11/20 13:19:59;;;;;;;16.20;11.50;;;11.00;99.90;;;;;;5069872;28;20861;-73
2021/11/20 13:22:47;;;;;;;9.50;8.20;;;11.10;99.90;;;;;;5064628;28;20572;-73
2021/11/20 13:25:33;;;;;;;10.20;7.90;;;11.10;99.90;;;;;;5066401;28;20448;-73
2021/11/20 13:28:19;;;;;;;9.07;7.87;;;11.00;99.90;;;;;;5067618;28;20439;-73
2021/11/20 13:31:06;;;;;;;11.47;9.10;;;11.00;99.90;;;;;;5063942;28;20536;-73
2021/11/20 13:33:52;;;;;;;12.20;8.27;;;11.00;99.90;;;;;;5067366;28;20443;-73
2021/11/20 13:36:38;;;;;;;10.23;8.10;;;11.00;99.90;;;;;;5065851;28;21768;-73
2021/11/20 13:39:24;;;;;;;10.27;7.47;;;11.00;99.90;;;;;;5067413;28;20557;-73
2021/11/20 13:42:10;;;;;;;9.20;7.23;;;11.10;99.90;;;;;;5066566;28;20436;-73
2021/11/20 13:44:57;;;;;;;8.40;7.33;;;11.10;99.90;;;;;;5065663;28;20433;-73
2021/11/20 13:47:45;;;;;;;7.97;7.17;;;11.10;99.90;;;;;;5066366;28;20443;-73
2021/11/20 13:50:40;;;;;;;9.27;6.70;;;11.20;99.90;;;;;;5064459;28;20458;-73
2021/11/20 13:53:32;;;;;;;7.63;6.60;;;11.20;99.90;;;;;;5065166;28;20466;-73
2021/11/20 13:56:18;;;;;;;9.20;8.30;;;11.00;99.90;;;;;;5063653;28;20496;-71
2021/11/20 13:59:06;;;;;;;8.90;6.87;;;10.90;99.90;;;;;;5063250;28;20450;-73
2021/11/20 14:01:55;;;;;;;10.50;7.00;;;10.90;99.90;;;;;;5066790;28;20531;-73
2021/11/20 14:04:44;;;;;;;10.37;8.27;;;11.00;99.90;;;;;;5066738;28;20564;-73
2021/11/20 14:07:34;;;;;;;9.97;8.60;;;11.00;99.90;;;;;;5065004;28;20519;-73
2021/11/20 14:10:30;;;;;;;10.87;8.80;;;11.00;99.90;;;;;;5065788;28;20542;-73
2021/11/20 14:13:20;;;;;;;15.40;10.37;;;11.00;99.90;;;;;;5066175;28;21016;-73
2021/11/20 14:16:07;;;;;;;13.80;10.83;;;10.90;99.90;;;;;;5064263;28;20761;-73
2021/11/20 14:18:54;;;;;;;14.57;10.00;;;10.90;99.90;;;;;;5061177;28;20799;-73
2021/11/20 14:21:40;;;;;;;13.07;8.53;;;10.80;99.90;;;;;;5068300;28;20410;-73
2021/11/20 14:24:27;;;;;;;14.87;11.70;;;10.80;99.90;;;;;;5068630;28;20454;-73
2021/11/20 14:27:15;;;;;;;11.90;9.60;;;10.80;99.90;;;;;;5069108;28;20906;-73
2021/11/20 14:30:01;;;;;;;13.80;9.17;;;10.80;99.90;;;;;;5062983;28;20437;-73
2021/11/20 14:32:48;;;;;;;8.83;7.50;;;10.70;99.90;;;;;;5068290;28;20524;-73
2021/11/20 14:35:35;;;;;;;11.30;9.03;;;10.60;99.90;;;;;;5063420;28;20525;-73
2021/11/20 14:38:20;;;;;;;13.07;8.13;;;10.70;99.90;;;;;;5062037;28;20512;-73